Ichikawa, Japan
Current Conditions -  °F | °C
As of 8:15 AM on Wednesday 26 Nov 2014 (Local Time) from RJTL Reporting Station
Light Rain Light Rain  
Wind Chill: 42°   Ceiling: 500
Heat Index: 46°   Visibility: 1.8mi
Dew Point: 45°   Wind: 8mph
Humidity: 93%   Direction: 330°NNW
Pressure: 29.97"   Gusts: NA
Location:  35.72°N, 139.93°E
Report Text: RJTL 252315Z 33007KT 290V010 3000 -RA BR SCT003 BKN005 BKN010 08/07 Q1015 RMK 3ST003 5ST005 7ST010 A2998
Loading
Personal Weather Stations






























Interactive Weather Map New forecast layout! Learn more

10-Day Weather Forecast

Advertisements
Track Severe Weather on mobile